Delfim Moreira, Brazil
Current Conditions -  °F | °C
As of 8:00 PM on Monday 22 Dec 2014 (Local Time) from SBGW Reporting Station
Overcast Overcast  
Wind Chill: 73°   Ceiling: 8000
Heat Index: 73°   Visibility: 6mi
Dew Point: 70°   Wind: 6mph
Humidity: 88%   Direction: 310°NW
Pressure: 29.94"   Gusts: NA
Location:  22.51°S, 45.28°W
Report Text: SBGW 222200Z 31005KT 9999 FEW010 SCT025 OVC080 23/21 Q1014
Loading
Personal Weather Stations






























Interactive Weather Map New forecast layout! Learn more

10-Day Weather Forecast

Advertisements
Track Severe Weather on mobile